MiSS Donna — WDG2382 — position and weather

sailwx.info

Track history (hours):
 
Tides and Currents Weather Stations Pressure Air Temp Water Temp Dewpoint Dewpoint Depression Visibility Wind Speed Wind Dir Waves Ship Positions

MiSS Donna

Owner: OCEAN MARINE BOAT RENTALS,LLC, MORGAN CITY, LA. More information available from US FCC via Universal Licensing System and Coast Guard Vessel Documentation Center.

Last reported at 2016-Jun-29 10:33 UTC. Time now 2016-Jun-29 11:08 UTC.
Position N 39°15' W 076°35'.

Length 21 m; draft 2.7 m.

Type: Towing. MMSI: 367515090.

Date/timePositionNaut miles runAvg speedWind from/ knotsBaromVisibWave heightAir tempDewpointWater temp
2016-Jun-29 10:33N 39°15' W 076°35'1 0.1
2016-Jun-28 17:33N 39°15' W 076°34'1 0.5
2016-Jun-28 16:33N 39°15' W 076°35'2 2.5
2016-Jun-28 15:33N 39°13' W 076°35'2 1.8
2016-Jun-28 14:33N 39°14' W 076°33'2 2.1
2016-Jun-28 13:33N 39°15' W 076°35'0 0.3
2016-Jun-28 12:33N 39°16' W 076°35'3 2.9
2016-Jun-28 11:33N 39°13' W 076°35'2 2.3
2016-Jun-28 10:33N 39°15' W 076°35'2 2.4
2016-Jun-28 09:33N 39°13' W 076°35'0 0.0
2016-Jun-28 08:33N 39°13' W 076°35'0 0.0
2016-Jun-28 07:33N 39°13' W 076°35'0 0.0
2016-Jun-28 06:32N 39°13' W 076°35'0 0.0
2016-Jun-28 04:33N 39°13' W 076°35'0 0.0
2016-Jun-28 03:33N 39°13' W 076°35'0 0.0
2016-Jun-28 02:33N 39°13' W 076°35'0 0.0
2016-Jun-28 01:33N 39°13' W 076°35'0 0.0
2016-Jun-28 00:33N 39°13' W 076°35'0 0.0
2016-Jun-27 23:33N 39°13' W 076°35'0 0.0
2016-Jun-27 22:33N 39°13' W 076°35'0 0.0
2016-Jun-27 21:33N 39°13' W 076°35'0 0.0
2016-Jun-27 20:33N 39°13' W 076°35'0 0.0
2016-Jun-27 19:33N 39°13' W 076°35'3 3.0
2016-Jun-27 18:33N 39°16' W 076°35'0 0.0
2016-Jun-27 17:33N 39°16' W 076°35'0 0.0
2016-Jun-27 16:33N 39°16' W 076°35'0 0.0
2016-Jun-27 15:33N 39°16' W 076°35'0 0.0
2016-Jun-27 14:33N 39°16' W 076°35'0 0.4
2016-Jun-27 13:33N 39°15' W 076°35'0 0.4
2016-Jun-27 12:33N 39°16' W 076°35'0 0.0
2016-Jun-27 11:33N 39°16' W 076°35'0 0.0
2016-Jun-27 10:33N 39°16' W 076°35'1 1.4
2016-Jun-27 09:33N 39°15' W 076°34'2 2.2
2016-Jun-27 08:34N 39°13' W 076°35'0 0.0
2016-Jun-27 07:34N 39°13' W 076°35'0 0.0
2016-Jun-27 06:33N 39°13' W 076°35'0 0.0
2016-Jun-27 05:33N 39°13' W 076°35'0 0.0
2016-Jun-27 04:33N 39°13' W 076°35'0 0.0
2016-Jun-27 03:33N 39°13' W 076°35'0 0.0
2016-Jun-27 02:33N 39°13' W 076°35'0 0.0
2016-Jun-27 01:33N 39°13' W 076°35'0 0.0
2016-Jun-27 00:33N 39°13' W 076°35'0 0.0
2016-Jun-26 23:33N 39°13' W 076°35'0 0.0
2016-Jun-26 22:33N 39°13' W 076°35'0 0.0
2016-Jun-26 21:32N 39°13' W 076°35'0 0.0
2016-Jun-26 20:34N 39°13' W 076°35'0 0.0
2016-Jun-26 19:30N 39°13' W 076°35'0 0.0
2016-Jun-26 18:31N 39°13' W 076°35'2 2.3
2016-Jun-26 17:33N 39°15' W 076°34'0 0.1
2016-Jun-26 16:33N 39°15' W 076°34'2 2.2
2016-Jun-26 15:33N 39°13' W 076°35'0 0.0
2016-Jun-26 14:33N 39°13' W 076°35'0 0.0
2016-Jun-26 13:33N 39°13' W 076°35'0 0.1
2016-Jun-26 12:33N 39°13' W 076°35'0 0.0
2016-Jun-26 11:32N 39°13' W 076°35'0 0.0
2016-Jun-26 10:33N 39°13' W 076°35'0 0.0
2016-Jun-26 09:33N 39°13' W 076°35'0 0.0
2016-Jun-26 08:33N 39°13' W 076°35'0 0.0
2016-Jun-26 07:33N 39°13' W 076°35'0 0.0
2016-Jun-26 06:34N 39°13' W 076°35'0 0.0
2016-Jun-26 05:34N 39°13' W 076°35'0 0.0
2016-Jun-26 04:33N 39°13' W 076°35'0 0.0
2016-Jun-26 03:33N 39°13' W 076°35'0 0.0
2016-Jun-26 02:32N 39°13' W 076°35'0 0.0
2016-Jun-26 01:34N 39°13' W 076°35'0 0.0
2016-Jun-26 00:34N 39°13' W 076°35'0 0.0
2016-Jun-25 23:33N 39°13' W 076°35'0 0.0
2016-Jun-25 22:33N 39°13' W 076°35'0 0.0
2016-Jun-25 21:33N 39°13' W 076°35'0 0.0
2016-Jun-25 20:33N 39°13' W 076°35'0 0.0
2016-Jun-25 19:33N 39°13' W 076°35'0 0.0
2016-Jun-25 18:33N 39°13' W 076°35'0 0.0
2016-Jun-25 17:33N 39°13' W 076°35'0 0.0
2016-Jun-25 16:33N 39°13' W 076°35'0 0.0
2016-Jun-25 15:33N 39°13' W 076°35'0 0.0
2016-Jun-25 14:33N 39°13' W 076°35'0 0.0
2016-Jun-25 13:33N 39°13' W 076°35'0 0.0
2016-Jun-25 12:30N 39°13' W 076°35'0 0.0
2016-Jun-25 11:33N 39°13' W 076°35'0 0.0
2016-Jun-25 10:33N 39°13' W 076°35'0 0.0
2016-Jun-25 09:33N 39°13' W 076°35'0 0.0
2016-Jun-25 08:33N 39°13' W 076°35'0 0.0
2016-Jun-25 07:33N 39°13' W 076°35'0 0.0
2016-Jun-25 06:33N 39°13' W 076°35'0 0.0
2016-Jun-25 05:33N 39°13' W 076°35'0 0.0
2016-Jun-25 04:33N 39°13' W 076°35'0 0.0
2016-Jun-25 03:33N 39°13' W 076°35'0 0.0
2016-Jun-25 02:33N 39°13' W 076°35'0 0.0
2016-Jun-25 01:33N 39°13' W 076°35'0 0.0
2016-Jun-25 00:33N 39°13' W 076°35'0 0.0
2016-Jun-24 23:33N 39°13' W 076°35'0 0.0
2016-Jun-24 22:33N 39°13' W 076°35'0 0.0
2016-Jun-24 21:33N 39°13' W 076°35'0 0.0
2016-Jun-24 20:31N 39°13' W 076°35'0 0.0
2016-Jun-24 19:31N 39°13' W 076°35'0 0.0
2016-Jun-24 18:24N 39°13' W 076°35'0 0.0
2016-Jun-24 17:33N 39°13' W 076°35'0 0.0
2016-Jun-24 16:32N 39°13' W 076°35'0 0.0
2016-Jun-24 15:33N 39°13' W 076°35'0 0.0
2016-Jun-24 14:32N 39°13' W 076°35'0 0.0
2016-Jun-24 13:22N 39°13' W 076°35'0 0.0
2016-Jun-24 12:33N 39°13' W 076°35'0 0.0
2016-Jun-24 11:33N 39°13' W 076°35'0 0.0
2016-Jun-24 10:33N 39°13' W 076°35'0 0.0
2016-Jun-24 09:33N 39°13' W 076°35'0 0.0
2016-Jun-24 08:33N 39°13' W 076°35'0 0.0
2016-Jun-24 07:33N 39°13' W 076°35'0 0.0
2016-Jun-24 03:29N 39°13' W 076°35'0 0.0
2016-Jun-24 02:33N 39°13' W 076°35'0 0.0
2016-Jun-24 01:33N 39°13' W 076°35'0 0.0
2016-Jun-24 00:32N 39°13' W 076°35'0 0.0
2016-Jun-23 23:33N 39°13' W 076°35'0 0.0
2016-Jun-23 22:33N 39°13' W 076°35'0 0.1
2016-Jun-23 21:34N 39°13' W 076°35'7 7.2
2016-Jun-23 20:33N 39°10' W 076°26'7 7.3
2016-Jun-23 19:33N 39°03' W 076°23'7 7.2
2016-Jun-23 18:33N 38°56' W 076°25'119 7.9
2016-Jun-23 03:31N 36°58' W 076°21'69 1.7
2016-Jun-21 10:15N 38°07' W 076°16'44 5.0
2016-Jun-21 01:26N 38°50' W 076°27'5 5.4
2016-Jun-21 00:33N 38°54' W 076°25'5 5.0
2016-Jun-20 23:33N 38°59' W 076°23'6 4.5
2016-Jun-20 22:21N 39°05' W 076°24'6 4.7
2016-Jun-20 21:09N 39°10' W 076°26'3 4.9
2016-Jun-20 20:33N 39°11' W 076°29'5 4.6
2016-Jun-20 19:33N 39°13' W 076°35'0 0.3
2016-Jun-20 18:32N 39°13' W 076°35'0 0.0
2016-Jun-20 17:31N 39°13' W 076°35'2 1.8
2016-Jun-20 16:33N 39°13' W 076°33'4 3.8
2016-Jun-20 15:33N 39°11' W 076°29'1 0.7
2016-Jun-20 14:34N 39°12' W 076°29'4 4.1
2016-Jun-20 13:33N 39°13' W 076°35'0 0.2
2016-Jun-20 12:33N 39°13' W 076°34'0 0.4
2016-Jun-20 11:33N 39°13' W 076°35'0 0.0
2016-Jun-20 10:33N 39°13' W 076°35'0 0.0
2016-Jun-20 09:33N 39°13' W 076°35'0 0.0
2016-Jun-20 08:33N 39°13' W 076°35'0 0.0
2016-Jun-20 07:33N 39°13' W 076°35'0 0.0
2016-Jun-20 06:33N 39°13' W 076°35'0 0.0
2016-Jun-20 05:33N 39°13' W 076°35'0 0.0
2016-Jun-20 04:19N 39°13' W 076°35'0 0.0
2016-Jun-20 03:16N 39°13' W 076°35'0 0.0
2016-Jun-20 02:31N 39°13' W 076°35'0 0.0
2016-Jun-20 01:05N 39°13' W 076°35'0 0.0
2016-Jun-20 00:33N 39°13' W 076°35'0 0.0
2016-Jun-19 23:23N 39°13' W 076°35'0 0.0
2016-Jun-19 22:31N 39°13' W 076°35'0 0.0
2016-Jun-19 19:32N 39°13' W 076°35'0 0.0
2016-Jun-19 14:33N 39°13' W 076°35'0 0.0
2016-Jun-19 13:34N 39°13' W 076°35'0 0.0
2016-Jun-19 12:22N 39°13' W 076°35'0 0.0
2016-Jun-19 11:12N 39°13' W 076°35'  
Track history (hours):
 
Tides and Currents Weather Stations Pressure Air Temp Water Temp Dewpoint Dewpoint Depression Visibility Wind Speed Wind Dir Waves Ship Positions

MiSS Donna

Owner: OCEAN MARINE BOAT RENTALS,LLC, MORGAN CITY, LA. More information available from US FCC via Universal Licensing System and Coast Guard Vessel Documentation Center.

Last reported at 2016-Jun-29 10:33 UTC. Time now 2016-Jun-29 11:08 UTC.
Position N 39°15' W 076°35'.

Length 21 m; draft 2.7 m.

Type: Towing. MMSI: 367515090.

Date/timePositionNaut miles runAvg speedWind from/ knotsBaromVisibWave heightAir tempDewpointWater temp
2016-Jun-29 10:33N 39°15' W 076°35'1 0.1
2016-Jun-28 17:33N 39°15' W 076°34'1 0.5
2016-Jun-28 16:33N 39°15' W 076°35'2 2.5
2016-Jun-28 15:33N 39°13' W 076°35'2 1.8
2016-Jun-28 14:33N 39°14' W 076°33'2 2.1
2016-Jun-28 13:33N 39°15' W 076°35'0 0.3
2016-Jun-28 12:33N 39°16' W 076°35'3 2.9
2016-Jun-28 11:33N 39°13' W 076°35'2 2.3
2016-Jun-28 10:33N 39°15' W 076°35'2 2.4
2016-Jun-28 09:33N 39°13' W 076°35'0 0.0
2016-Jun-28 08:33N 39°13' W 076°35'0 0.0
2016-Jun-28 07:33N 39°13' W 076°35'0 0.0
2016-Jun-28 06:32N 39°13' W 076°35'0 0.0
2016-Jun-28 04:33N 39°13' W 076°35'0 0.0
2016-Jun-28 03:33N 39°13' W 076°35'0 0.0
2016-Jun-28 02:33N 39°13' W 076°35'0 0.0
2016-Jun-28 01:33N 39°13' W 076°35'0 0.0
2016-Jun-28 00:33N 39°13' W 076°35'0 0.0
2016-Jun-27 23:33N 39°13' W 076°35'0 0.0
2016-Jun-27 22:33N 39°13' W 076°35'0 0.0
2016-Jun-27 21:33N 39°13' W 076°35'0 0.0
2016-Jun-27 20:33N 39°13' W 076°35'0 0.0
2016-Jun-27 19:33N 39°13' W 076°35'3 3.0
2016-Jun-27 18:33N 39°16' W 076°35'0 0.0
2016-Jun-27 17:33N 39°16' W 076°35'0 0.0
2016-Jun-27 16:33N 39°16' W 076°35'0 0.0
2016-Jun-27 15:33N 39°16' W 076°35'0 0.0
2016-Jun-27 14:33N 39°16' W 076°35'0 0.4
2016-Jun-27 13:33N 39°15' W 076°35'0 0.4
2016-Jun-27 12:33N 39°16' W 076°35'0 0.0
2016-Jun-27 11:33N 39°16' W 076°35'0 0.0
2016-Jun-27 10:33N 39°16' W 076°35'1 1.4
2016-Jun-27 09:33N 39°15' W 076°34'2 2.2
2016-Jun-27 08:34N 39°13' W 076°35'0 0.0
2016-Jun-27 07:34N 39°13' W 076°35'0 0.0
2016-Jun-27 06:33N 39°13' W 076°35'0 0.0
2016-Jun-27 05:33N 39°13' W 076°35'0 0.0
2016-Jun-27 04:33N 39°13' W 076°35'0 0.0
2016-Jun-27 03:33N 39°13' W 076°35'0 0.0
2016-Jun-27 02:33N 39°13' W 076°35'0 0.0
2016-Jun-27 01:33N 39°13' W 076°35'0 0.0
2016-Jun-27 00:33N 39°13' W 076°35'0 0.0
2016-Jun-26 23:33N 39°13' W 076°35'0 0.0
2016-Jun-26 22:33N 39°13' W 076°35'0 0.0
2016-Jun-26 21:32N 39°13' W 076°35'0 0.0
2016-Jun-26 20:34N 39°13' W 076°35'0 0.0
2016-Jun-26 19:30N 39°13' W 076°35'0 0.0
2016-Jun-26 18:31N 39°13' W 076°35'2 2.3
2016-Jun-26 17:33N 39°15' W 076°34'0 0.1
2016-Jun-26 16:33N 39°15' W 076°34'2 2.2
2016-Jun-26 15:33N 39°13' W 076°35'0 0.0
2016-Jun-26 14:33N 39°13' W 076°35'0 0.0
2016-Jun-26 13:33N 39°13' W 076°35'0 0.1
2016-Jun-26 12:33N 39°13' W 076°35'0 0.0
2016-Jun-26 11:32N 39°13' W 076°35'0 0.0
2016-Jun-26 10:33N 39°13' W 076°35'0 0.0
2016-Jun-26 09:33N 39°13' W 076°35'0 0.0
2016-Jun-26 08:33N 39°13' W 076°35'0 0.0
2016-Jun-26 07:33N 39°13' W 076°35'0 0.0
2016-Jun-26 06:34N 39°13' W 076°35'0 0.0
2016-Jun-26 05:34N 39°13' W 076°35'0 0.0
2016-Jun-26 04:33N 39°13' W 076°35'0 0.0
2016-Jun-26 03:33N 39°13' W 076°35'0 0.0
2016-Jun-26 02:32N 39°13' W 076°35'0 0.0
2016-Jun-26 01:34N 39°13' W 076°35'0 0.0
2016-Jun-26 00:34N 39°13' W 076°35'0 0.0
2016-Jun-25 23:33N 39°13' W 076°35'0 0.0
2016-Jun-25 22:33N 39°13' W 076°35'0 0.0
2016-Jun-25 21:33N 39°13' W 076°35'0 0.0
2016-Jun-25 20:33N 39°13' W 076°35'0 0.0
2016-Jun-25 19:33N 39°13' W 076°35'0 0.0
2016-Jun-25 18:33N 39°13' W 076°35'0 0.0
2016-Jun-25 17:33N 39°13' W 076°35'0 0.0
2016-Jun-25 16:33N 39°13' W 076°35'0 0.0
2016-Jun-25 15:33N 39°13' W 076°35'0 0.0
2016-Jun-25 14:33N 39°13' W 076°35'0 0.0
2016-Jun-25 13:33N 39°13' W 076°35'0 0.0
2016-Jun-25 12:30N 39°13' W 076°35'0 0.0
2016-Jun-25 11:33N 39°13' W 076°35'0 0.0
2016-Jun-25 10:33N 39°13' W 076°35'0 0.0
2016-Jun-25 09:33N 39°13' W 076°35'0 0.0
2016-Jun-25 08:33N 39°13' W 076°35'0 0.0
2016-Jun-25 07:33N 39°13' W 076°35'0 0.0
2016-Jun-25 06:33N 39°13' W 076°35'0 0.0
2016-Jun-25 05:33N 39°13' W 076°35'0 0.0
2016-Jun-25 04:33N 39°13' W 076°35'0 0.0
2016-Jun-25 03:33N 39°13' W 076°35'0 0.0
2016-Jun-25 02:33N 39°13' W 076°35'0 0.0
2016-Jun-25 01:33N 39°13' W 076°35'0 0.0
2016-Jun-25 00:33N 39°13' W 076°35'0 0.0
2016-Jun-24 23:33N 39°13' W 076°35'0 0.0
2016-Jun-24 22:33N 39°13' W 076°35'0 0.0
2016-Jun-24 21:33N 39°13' W 076°35'0 0.0
2016-Jun-24 20:31N 39°13' W 076°35'0 0.0
2016-Jun-24 19:31N 39°13' W 076°35'0 0.0
2016-Jun-24 18:24N 39°13' W 076°35'0 0.0
2016-Jun-24 17:33N 39°13' W 076°35'0 0.0
2016-Jun-24 16:32N 39°13' W 076°35'0 0.0
2016-Jun-24 15:33N 39°13' W 076°35'0 0.0
2016-Jun-24 14:32N 39°13' W 076°35'0 0.0
2016-Jun-24 13:22N 39°13' W 076°35'0 0.0
2016-Jun-24 12:33N 39°13' W 076°35'0 0.0
2016-Jun-24 11:33N 39°13' W 076°35'0 0.0
2016-Jun-24 10:33N 39°13' W 076°35'0 0.0
2016-Jun-24 09:33N 39°13' W 076°35'0 0.0
2016-Jun-24 08:33N 39°13' W 076°35'0 0.0
2016-Jun-24 07:33N 39°13' W 076°35'0 0.0
2016-Jun-24 03:29N 39°13' W 076°35'0 0.0
2016-Jun-24 02:33N 39°13' W 076°35'0 0.0
2016-Jun-24 01:33N 39°13' W 076°35'0 0.0
2016-Jun-24 00:32N 39°13' W 076°35'0 0.0
2016-Jun-23 23:33N 39°13' W 076°35'0 0.0
2016-Jun-23 22:33N 39°13' W 076°35'0 0.1
2016-Jun-23 21:34N 39°13' W 076°35'7 7.2
2016-Jun-23 20:33N 39°10' W 076°26'7 7.3
2016-Jun-23 19:33N 39°03' W 076°23'7 7.2
2016-Jun-23 18:33N 38°56' W 076°25'119 7.9
2016-Jun-23 03:31N 36°58' W 076°21'69 1.7
2016-Jun-21 10:15N 38°07' W 076°16'44 5.0
2016-Jun-21 01:26N 38°50' W 076°27'5 5.4
2016-Jun-21 00:33N 38°54' W 076°25'5 5.0
2016-Jun-20 23:33N 38°59' W 076°23'6 4.5
2016-Jun-20 22:21N 39°05' W 076°24'6 4.7
2016-Jun-20 21:09N 39°10' W 076°26'3 4.9
2016-Jun-20 20:33N 39°11' W 076°29'5 4.6
2016-Jun-20 19:33N 39°13' W 076°35'0 0.3
2016-Jun-20 18:32N 39°13' W 076°35'0 0.0
2016-Jun-20 17:31N 39°13' W 076°35'2 1.8
2016-Jun-20 16:33N 39°13' W 076°33'4 3.8
2016-Jun-20 15:33N 39°11' W 076°29'1 0.7
2016-Jun-20 14:34N 39°12' W 076°29'4 4.1
2016-Jun-20 13:33N 39°13' W 076°35'0 0.2
2016-Jun-20 12:33N 39°13' W 076°34'0 0.4
2016-Jun-20 11:33N 39°13' W 076°35'0 0.0
2016-Jun-20 10:33N 39°13' W 076°35'0 0.0
2016-Jun-20 09:33N 39°13' W 076°35'0 0.0
2016-Jun-20 08:33N 39°13' W 076°35'0 0.0
2016-Jun-20 07:33N 39°13' W 076°35'0 0.0
2016-Jun-20 06:33N 39°13' W 076°35'0 0.0
2016-Jun-20 05:33N 39°13' W 076°35'0 0.0
2016-Jun-20 04:19N 39°13' W 076°35'0 0.0
2016-Jun-20 03:16N 39°13' W 076°35'0 0.0
2016-Jun-20 02:31N 39°13' W 076°35'0 0.0
2016-Jun-20 01:05N 39°13' W 076°35'0 0.0
2016-Jun-20 00:33N 39°13' W 076°35'0 0.0
2016-Jun-19 23:23N 39°13' W 076°35'0 0.0
2016-Jun-19 22:31N 39°13' W 076°35'0 0.0
2016-Jun-19 19:32N 39°13' W 076°35'0 0.0
2016-Jun-19 14:33N 39°13' W 076°35'0 0.0
2016-Jun-19 13:34N 39°13' W 076°35'0 0.0
2016-Jun-19 12:22N 39°13' W 076°35'0 0.0
2016-Jun-19 11:12N 39°13' W 076°35'  

Dump ship's entire track history